createdAt,value
2018-09-04T00:00:23.868Z,101117.73
2018-09-04T00:02:51.382Z,101115.34
2018-09-04T00:05:18.031Z,101113.18
2018-09-04T00:07:44.684Z,101113.03
2018-09-04T00:10:12.208Z,101104.70
2018-09-04T00:12:39.686Z,101101.55
2018-09-04T00:15:10.940Z,101104.09
2018-09-04T00:17:39.009Z,101106.19
2018-09-04T00:20:06.530Z,101099.89
2018-09-04T00:22:33.208Z,101100.98
2018-09-04T00:25:00.736Z,101095.67
2018-09-04T00:27:28.241Z,101096.66
2018-09-04T00:29:55.486Z,101094.64
2018-09-04T00:32:22.124Z,101090.84
2018-09-04T00:34:48.761Z,101086.86
2018-09-04T00:37:15.585Z,101092.89
2018-09-04T00:39:42.540Z,101087.84
2018-09-04T00:42:09.308Z,101092.55
2018-09-04T00:44:36.980Z,101086.02
2018-09-04T00:47:03.633Z,101085.75
2018-09-04T00:49:30.456Z,101086.25
2018-09-04T00:51:58.041Z,101090.23
2018-09-04T00:54:24.691Z,101092.89
2018-09-04T00:56:51.359Z,101086.36
2018-09-04T00:59:18.072Z,101092.40
2018-09-04T01:01:44.708Z,101095.89
2018-09-04T01:04:11.359Z,101098.90
2018-09-04T01:06:38.042Z,101101.98
2018-09-04T01:09:05.506Z,101103.38
2018-09-04T01:11:33.100Z,101100.16
2018-09-04T01:13:59.752Z,101100.45
2018-09-04T01:16:26.387Z,101103.61
2018-09-04T01:18:53.040Z,101104.86
2018-09-04T01:21:21.896Z,101105.84
2018-09-04T01:23:48.568Z,101104.64
2018-09-04T01:26:15.278Z,101104.98
2018-09-04T01:28:41.977Z,101107.30
2018-09-04T01:31:08.653Z,101102.13
2018-09-04T01:33:35.297Z,101104.02
2018-09-04T01:36:02.880Z,101106.12
2018-09-04T01:38:29.516Z,101103.65
2018-09-04T01:40:56.243Z,101110.45
2018-09-04T01:43:22.893Z,101104.14
2018-09-04T01:45:51.761Z,101111.78
2018-09-04T01:48:20.287Z,101109.27
2018-09-04T01:50:47.840Z,101104.07
2018-09-04T01:53:15.548Z,101104.37
2018-09-04T01:55:42.208Z,101105.55
2018-09-04T01:58:09.854Z,101102.97
2018-09-04T02:00:36.518Z,101105.55
2018-09-04T02:03:04.163Z,101103.11
2018-09-04T02:05:30.821Z,101103.73
2018-09-04T02:07:58.480Z,101098.97
2018-09-04T02:10:26.072Z,101104.45
2018-09-04T02:12:53.717Z,101101.41
2018-09-04T02:15:21.327Z,101100.80
2018-09-04T02:17:48.276Z,101105.06
2018-09-04T02:20:15.940Z,101104.22
2018-09-04T02:22:43.431Z,101100.58
2018-09-04T02:25:11.090Z,101099.55
2018-09-04T02:27:38.932Z,101099.67
2018-09-04T02:30:06.524Z,101101.91
2018-09-04T02:32:33.344Z,101097.31
2018-09-04T02:35:00.072Z,101095.48
2018-09-04T02:37:28.444Z,101092.06
2018-09-04T02:39:56.088Z,101094.99
2018-09-04T02:42:23.692Z,101093.93
2018-09-04T02:44:51.561Z,101088.34
2018-09-04T02:47:20.620Z,101095.83
2018-09-04T02:49:47.300Z,101090.86
2018-09-04T02:52:14.025Z,101096.17
2018-09-04T02:54:41.517Z,101093.09
2018-09-04T02:57:08.158Z,101088.27
2018-09-04T02:59:35.805Z,101093.66
2018-09-04T03:02:03.378Z,101091.16
2018-09-04T03:04:30.073Z,101094.77
2018-09-04T03:06:58.776Z,101093.36
2018-09-04T03:09:26.372Z,101092.53
2018-09-04T03:11:53.836Z,101095.56
2018-09-04T03:14:21.228Z,101095.91
2018-09-04T03:16:48.832Z,101096.25
2018-09-04T03:19:15.512Z,101089.45
2018-09-04T03:21:43.225Z,101095.68
2018-09-04T03:24:09.916Z,101091.20
2018-09-04T03:26:37.713Z,101093.36
2018-09-04T03:29:05.213Z,101094.58
2018-09-04T03:31:32.251Z,101095.75
2018-09-04T03:33:59.820Z,101097.01
2018-09-04T03:36:28.360Z,101107.64
2018-09-04T03:38:55.910Z,101105.97
2018-09-04T03:41:23.625Z,101102.33
2018-09-04T03:43:51.275Z,101095.95
2018-09-04T03:46:18.825Z,101105.13
2018-09-04T03:48:46.325Z,101107.98
2018-09-04T03:51:13.998Z,101109.61
2018-09-04T03:53:41.486Z,101109.13
2018-09-04T03:56:08.185Z,101111.52
2018-09-04T03:58:34.829Z,101109.47
2018-09-04T04:01:02.513Z,101116.38
2018-09-04T04:03:30.072Z,101113.94
2018-09-04T04:05:58.220Z,101121.20
2018-09-04T04:08:25.889Z,101124.84
2018-09-04T04:10:53.477Z,101129.05
2018-09-04T04:13:21.088Z,101126.81
2018-09-04T04:15:47.760Z,101127.16
2018-09-04T04:18:14.423Z,101123.52
2018-09-04T04:20:45.829Z,101126.66
2018-09-04T04:23:12.524Z,101126.17
2018-09-04T04:25:40.073Z,101123.17
2018-09-04T04:28:06.800Z,101128.22
2018-09-04T04:30:34.346Z,101128.30
2018-09-04T04:33:01.122Z,101123.39
2018-09-04T04:35:28.928Z,101130.04
2018-09-04T04:37:58.053Z,101134.30
2018-09-04T04:40:24.710Z,101129.88
2018-09-04T04:42:51.381Z,101139.88
2018-09-04T04:45:18.161Z,101135.63
2018-09-04T04:47:46.699Z,101142.19
2018-09-04T04:50:13.417Z,101141.28
2018-09-04T04:52:40.254Z,101141.70
2018-09-04T04:55:06.962Z,101142.45
2018-09-04T04:57:34.621Z,101140.52
2018-09-04T05:00:02.289Z,101150.08
2018-09-04T05:02:28.930Z,101148.00
2018-09-04T05:04:55.606Z,101148.00
2018-09-04T05:07:22.258Z,101149.06
2018-09-04T05:09:50.325Z,101146.45
2018-09-04T05:12:18.009Z,101148.34
2018-09-04T05:14:45.684Z,101146.25
2018-09-04T05:17:13.421Z,101144.09
2018-09-04T05:19:40.909Z,101153.89
2018-09-04T05:22:07.653Z,101154.72
2018-09-04T05:24:35.386Z,101155.30
2018-09-04T05:27:02.049Z,101158.06
2018-09-04T05:29:28.744Z,101154.38
2018-09-04T05:32:03.816Z,101158.30
2018-09-04T05:34:31.384Z,101161.02
2018-09-04T05:36:58.923Z,101155.75
2018-09-04T05:39:25.573Z,101155.14
2018-09-04T05:41:52.235Z,101158.87
2018-09-04T05:44:18.904Z,101154.92
2018-09-04T05:46:47.780Z,101148.02
2018-09-04T05:49:18.583Z,101143.76
2018-09-04T05:51:46.118Z,101141.86
2018-09-04T05:54:13.828Z,101142.92
2018-09-04T05:56:41.389Z,101146.25
2018-09-04T05:59:08.087Z,101145.52
2018-09-04T06:01:34.737Z,101144.64
2018-09-04T06:04:02.203Z,101138.95
2018-09-04T06:06:28.877Z,101136.16
2018-09-04T06:08:55.616Z,101144.98
2018-09-04T06:11:23.244Z,101141.67
2018-09-04T06:13:50.773Z,101142.09
2018-09-04T06:16:18.237Z,101140.28
2018-09-04T06:18:44.887Z,101145.25
2018-09-04T06:21:11.552Z,101145.41
2018-09-04T06:23:38.265Z,101144.57
2018-09-04T06:26:04.933Z,101140.28
2018-09-04T06:28:31.580Z,101143.16
2018-09-04T06:30:58.966Z,101139.74
2018-09-04T06:33:25.623Z,101142.86
2018-09-04T06:35:52.720Z,101144.57
2018-09-04T06:38:20.636Z,101145.41
2018-09-04T06:40:48.341Z,101149.89
2018-09-04T06:43:16.074Z,101143.02
2018-09-04T06:45:43.713Z,101151.49
2018-09-04T06:48:10.627Z,101147.50
2018-09-04T06:50:38.343Z,101152.33
2018-09-04T06:53:05.001Z,101149.81
2018-09-04T06:55:32.672Z,101152.33
2018-09-04T06:58:00.363Z,101155.97
2018-09-04T07:00:29.372Z,101153.16
2018-09-04T07:02:57.896Z,101154.16
2018-09-04T07:05:28.608Z,101160.95
2018-09-04T07:07:56.220Z,101159.25
2018-09-04T07:10:22.908Z,101161.80
2018-09-04T07:12:50.994Z,101158.83
2018-09-04T07:15:18.508Z,101159.47
2018-09-04T07:17:46.336Z,101159.74
2018-09-04T07:20:14.117Z,101169.39
2018-09-04T07:22:41.642Z,101166.27
2018-09-04T07:25:09.161Z,101163.39
2018-09-04T07:27:35.845Z,101163.88
2018-09-04T07:30:03.588Z,101161.72
2018-09-04T07:32:30.719Z,101161.22
2018-09-04T07:34:58.937Z,101162.41
2018-09-04T07:37:26.624Z,101165.06
2018-09-04T07:39:54.088Z,101170.53
2018-09-04T07:42:22.965Z,101174.38
2018-09-04T07:44:50.768Z,101168.71
2018-09-04T07:47:18.268Z,101163.05
2018-09-04T07:49:45.845Z,101163.73
2018-09-04T07:52:13.543Z,101162.06
2018-09-04T07:54:41.153Z,101159.25
2018-09-04T07:57:08.756Z,101167.61
2018-09-04T07:59:36.344Z,101162.63
2018-09-04T08:02:03.014Z,101158.22
2018-09-04T08:04:30.645Z,101161.56
2018-09-04T08:06:58.984Z,101161.64
2018-09-04T08:09:26.696Z,101161.42
2018-09-04T08:11:55.041Z,101154.42
2018-09-04T08:14:21.739Z,101158.41
2018-09-04T08:16:50.427Z,101153.59
2018-09-04T08:19:17.131Z,101154.30
2018-09-04T08:21:44.601Z,101160.80
2018-09-04T08:24:12.216Z,101163.95
2018-09-04T08:26:39.805Z,101164.45
2018-09-04T08:29:07.435Z,101170.61
2018-09-04T08:31:35.096Z,101160.05
2018-09-04T08:34:01.757Z,101158.41
2018-09-04T08:36:28.591Z,101161.91
2018-09-04T08:38:55.270Z,101158.14
2018-09-04T08:41:21.912Z,101160.46
2018-09-04T08:43:49.701Z,101161.80
2018-09-04T08:46:16.568Z,101154.92
2018-09-04T08:48:44.056Z,101149.10
2018-09-04T08:51:10.717Z,101146.25
2018-09-04T08:53:37.425Z,101142.11
2018-09-04T08:56:04.128Z,101142.95
2018-09-04T08:58:30.817Z,101146.78
2018-09-04T09:00:58.412Z,101145.34
2018-09-04T09:03:25.109Z,101142.80
2018-09-04T09:05:52.468Z,101142.45
2018-09-04T09:08:20.667Z,101142.11
2018-09-04T09:10:47.312Z,101136.52
2018-09-04T09:13:13.969Z,101130.83
2018-09-04T09:15:40.688Z,101136.52
2018-09-04T09:18:07.361Z,101134.47
2018-09-04T09:20:34.536Z,101131.69
2018-09-04T09:23:02.182Z,101133.86
2018-09-04T09:25:29.824Z,101134.05
2018-09-04T09:27:56.500Z,101133.37
2018-09-04T09:30:24.001Z,101133.64
2018-09-04T09:32:52.694Z,101127.33
2018-09-04T09:35:21.377Z,101124.48
2018-09-04T09:37:48.241Z,101121.67
2018-09-04T09:40:15.749Z,101116.62
2018-09-04T09:42:43.217Z,101112.63
2018-09-04T09:45:09.912Z,101114.18
2018-09-04T09:47:42.393Z,101119.99
2018-09-04T09:50:09.081Z,101119.16
2018-09-04T09:52:35.831Z,101111.18
2018-09-04T09:55:02.502Z,101118.32
2018-09-04T09:57:29.174Z,101118.39
2018-09-04T09:59:56.861Z,101118.66
2018-09-04T10:11:04.749Z,101111.67
2018-09-04T10:13:31.437Z,101110.90
2018-09-04T10:15:59.282Z,101105.73
2018-09-04T10:18:25.943Z,101108.02
2018-09-04T10:20:52.637Z,101112.19
2018-09-04T10:23:20.497Z,101112.67
2018-09-04T10:25:47.252Z,101111.57
2018-09-04T10:28:14.881Z,101115.29
2018-09-04T10:30:41.546Z,101109.13
2018-09-04T10:33:08.208Z,101113.00
2018-09-04T10:35:34.916Z,101110.84
2018-09-04T10:38:01.552Z,101108.52
2018-09-04T10:40:34.913Z,101109.51
2018-09-04T10:43:01.541Z,101105.98
2018-09-04T10:45:34.961Z,101101.53
2018-09-04T10:48:01.636Z,101103.47
2018-09-04T10:50:28.436Z,101094.16
2018-09-04T10:52:56.151Z,101098.98
2018-09-04T10:55:22.845Z,101089.19
2018-09-04T10:57:51.592Z,101098.00
2018-09-04T11:00:20.133Z,101090.52
2018-09-04T11:02:47.892Z,101082.53
2018-09-04T11:05:15.439Z,101079.04
2018-09-04T11:07:42.942Z,101071.06
2018-09-04T11:10:10.590Z,101066.73
2018-09-04T11:12:37.260Z,101064.07
2018-09-04T11:15:05.106Z,101066.58
2018-09-04T11:17:31.799Z,101060.42
2018-09-04T11:19:59.248Z,101063.58
2018-09-04T11:22:26.797Z,101062.59
2018-09-04T11:24:54.796Z,101060.92
2018-09-04T11:27:22.618Z,101051.73
2018-09-04T11:29:49.997Z,101059.59
2018-09-04T11:32:16.718Z,101058.47
2018-09-04T11:34:43.590Z,101061.48
2018-09-04T11:37:11.280Z,101056.16
2018-09-04T11:39:38.016Z,101055.81
2018-09-04T11:42:05.820Z,101062.47
2018-09-04T11:44:32.512Z,101061.63
2018-09-04T11:47:01.752Z,101057.15
2018-09-04T11:49:29.164Z,101063.20
2018-09-04T11:51:56.765Z,101061.26
2018-09-04T11:54:24.500Z,101065.40
2018-09-04T11:56:51.977Z,101065.86
2018-09-04T11:59:18.660Z,101061.16
2018-09-04T12:01:50.920Z,101061.88
2018-09-04T12:04:18.535Z,101060.08
2018-09-04T12:06:46.254Z,101064.07
2018-09-04T12:09:12.888Z,101060.08
2018-09-04T12:11:40.505Z,101055.10
2018-09-04T12:14:07.196Z,101050.40
2018-09-04T12:16:33.901Z,101053.77
2018-09-04T12:19:00.566Z,101051.11
2018-09-04T12:21:28.297Z,101053.77
2018-09-04T12:23:54.996Z,101051.73
2018-09-04T12:26:21.683Z,101045.58
2018-09-04T12:28:48.345Z,101050.28
2018-09-04T12:31:15.165Z,101047.13
2018-09-04T12:33:41.833Z,101047.47
2018-09-04T12:36:08.480Z,101045.52
2018-09-04T12:38:36.693Z,101041.69
2018-09-04T12:41:06.132Z,101044.34
2018-09-04T12:43:32.829Z,101046.13
2018-09-04T12:45:59.477Z,101047.13
2018-09-04T12:48:28.271Z,101048.23
2018-09-04T12:50:56.003Z,101045.58
2018-09-04T12:53:23.158Z,101045.58
2018-09-04T12:55:50.921Z,101049.07
2018-09-04T12:58:17.692Z,101051.02
2018-09-04T13:00:45.544Z,101045.70
2018-09-04T13:03:12.633Z,101042.91
2018-09-04T13:05:40.308Z,101043.41
2018-09-04T13:08:06.997Z,101041.36
2018-09-04T13:10:33.689Z,101042.91
2018-09-04T13:13:01.197Z,101042.55
2018-09-04T13:15:28.681Z,101038.37
2018-09-04T13:17:55.460Z,101035.77
2018-09-04T13:20:23.119Z,101038.92
2018-09-04T13:22:51.044Z,101037.94
2018-09-04T13:25:18.754Z,101038.55
2018-09-04T13:27:46.401Z,101035.89
2018-09-04T13:30:13.100Z,101041.46
2018-09-04T13:32:40.702Z,101041.21
2018-09-04T13:35:07.407Z,101039.42
2018-09-04T13:37:34.893Z,101042.30
2018-09-04T13:40:03.080Z,101035.77
2018-09-04T13:42:31.664Z,101042.55
2018-09-04T13:44:59.336Z,101039.54
2018-09-04T13:47:28.028Z,101037.72
2018-09-04T13:49:56.196Z,101032.05
2018-09-04T13:52:24.068Z,101034.38
2018-09-04T13:54:53.040Z,101024.58
2018-09-04T13:57:22.373Z,101035.20
2018-09-04T13:59:50.969Z,101041.36
2018-09-04T14:02:18.552Z,101041.92
2018-09-04T14:04:45.202Z,101042.08
2018-09-04T14:07:12.765Z,101046.53
2018-09-04T14:09:39.425Z,101051.39
2018-09-04T14:12:07.137Z,101044.80
2018-09-04T14:14:34.218Z,101045.58
2018-09-04T14:17:01.872Z,101041.36
2018-09-04T14:19:29.966Z,101041.70
2018-09-04T14:21:56.621Z,101043.53
2018-09-04T14:24:24.096Z,101044.03
2018-09-04T14:26:51.962Z,101047.18
2018-09-04T14:29:53.171Z,101045.50
2018-09-04T14:31:48.896Z,101037.88
2018-09-04T14:34:16.468Z,101045.20
2018-09-04T14:36:44.229Z,101042.91
2018-09-04T14:39:11.716Z,101046.41
2018-09-04T14:41:39.209Z,101047.86
2018-09-04T14:44:05.996Z,101047.24
2018-09-04T14:46:32.730Z,101043.25
2018-09-04T14:49:00.285Z,101040.75
2018-09-04T14:51:28.739Z,101042.42
2018-09-04T14:53:56.560Z,101043.87
2018-09-04T14:56:24.200Z,101039.77
2018-09-04T14:58:51.693Z,101042.08
2018-09-04T15:01:20.409Z,101040.37
2018-09-04T15:03:47.753Z,101039.54
2018-09-04T15:06:15.419Z,101045.20
2018-09-04T15:08:43.061Z,101047.52
2018-09-04T15:11:10.624Z,101047.67
2018-09-04T15:13:37.289Z,101049.00
2018-09-04T15:16:04.839Z,101048.02
2018-09-04T15:18:31.532Z,101055.16
2018-09-04T15:20:59.020Z,101057.66
2018-09-04T15:23:27.375Z,101063.63
2018-09-04T15:25:54.944Z,101065.45
2018-09-04T15:28:21.611Z,101067.77
2018-09-04T15:30:50.149Z,101063.48
2018-09-04T15:33:16.861Z,101068.30
2018-09-04T15:35:43.516Z,101062.98
2018-09-04T15:38:10.282Z,101064.31
2018-09-04T15:40:37.051Z,101060.32
2018-09-04T15:43:03.917Z,101063.48
2018-09-04T15:45:30.688Z,101069.94
2018-09-04T15:47:58.348Z,101070.77
2018-09-04T15:50:25.960Z,101070.55
2018-09-04T15:52:52.670Z,101067.27
2018-09-04T15:55:20.592Z,101073.92
2018-09-04T15:57:47.244Z,101069.29
2018-09-04T16:00:13.927Z,101072.59
2018-09-04T16:02:40.591Z,101070.77
2018-09-04T16:05:07.255Z,101068.11
2018-09-04T16:07:33.904Z,101074.77
2018-09-04T16:10:00.747Z,101075.25
2018-09-04T16:12:27.919Z,101078.26
2018-09-04T16:14:54.563Z,101077.42
2018-09-04T16:17:22.596Z,101071.61
2018-09-04T16:19:50.329Z,101073.92
2018-09-04T16:22:16.996Z,101072.59
2018-09-04T16:24:43.737Z,101079.24
2018-09-04T16:27:11.371Z,101078.53
2018-09-04T16:29:38.033Z,101077.54
2018-09-04T16:32:05.694Z,101075.25
2018-09-04T16:34:32.410Z,101080.20
2018-09-04T16:36:59.999Z,101079.36
2018-09-04T16:39:26.666Z,101081.91
2018-09-04T16:41:54.401Z,101078.26
2018-09-04T16:44:21.053Z,101089.73
2018-09-04T16:46:48.780Z,101085.73
2018-09-04T16:49:15.473Z,101084.69
2018-09-04T16:51:43.126Z,101088.55
2018-09-04T16:54:10.132Z,101084.84
2018-09-04T16:56:36.862Z,101090.23
2018-09-04T16:59:04.448Z,101093.72
2018-09-04T17:01:31.205Z,101094.21
2018-09-04T17:04:00.236Z,101090.38
2018-09-04T17:06:28.782Z,101093.30
2018-09-04T17:08:55.485Z,101090.42
2018-09-04T17:11:22.355Z,101096.80
2018-09-04T17:13:50.293Z,101095.32
2018-09-04T17:16:17.053Z,101101.13
2018-09-04T17:18:43.722Z,101108.50
2018-09-04T17:21:10.434Z,101107.66
2018-09-04T17:23:38.007Z,101107.78
2018-09-04T17:26:05.693Z,101110.94
2018-09-04T17:28:32.401Z,101117.09
2018-09-04T17:30:59.053Z,101110.59
2018-09-04T17:33:25.728Z,101116.59
2018-09-04T17:35:53.035Z,101111.23
2018-09-04T17:38:20.444Z,101118.34
2018-09-04T17:40:47.144Z,101116.33
2018-09-04T17:43:14.680Z,101118.64
2018-09-04T17:45:42.379Z,101119.25
2018-09-04T17:48:09.073Z,101121.72
2018-09-04T17:50:36.900Z,101124.16
2018-09-04T17:53:04.429Z,101125.00
2018-09-04T17:55:31.100Z,101124.16
2018-09-04T17:57:58.928Z,101121.50
2018-09-04T18:00:26.381Z,101128.98
2018-09-04T18:02:53.917Z,101130.31
2018-09-04T18:05:21.988Z,101122.98
2018-09-04T18:07:48.693Z,101135.29
2018-09-04T18:10:15.377Z,101134.60
2018-09-04T18:12:43.090Z,101138.59
2018-09-04T18:15:10.705Z,101143.53
2018-09-04T18:17:37.496Z,101144.94
2018-09-04T18:20:04.238Z,101136.96
2018-09-04T18:22:30.909Z,101145.66
2018-09-04T18:24:59.397Z,101153.41
2018-09-04T18:27:26.081Z,101152.53
2018-09-04T18:29:53.743Z,101155.48
2018-09-04T18:32:21.554Z,101163.04
2018-09-04T18:34:50.143Z,101163.61
2018-09-04T18:37:16.822Z,101166.61
2018-09-04T18:39:43.518Z,101172.84
2018-09-04T18:42:10.256Z,101179.48
2018-09-04T18:44:36.926Z,101172.19
2018-09-04T18:47:03.604Z,101177.51
2018-09-04T18:49:30.425Z,101181.16
2018-09-04T18:51:57.086Z,101184.53
2018-09-04T18:54:23.793Z,101189.14
2018-09-04T18:56:51.312Z,101193.14
2018-09-04T18:59:18.177Z,101198.11
2018-09-04T19:01:44.821Z,101201.77
2018-09-04T19:04:11.492Z,101207.42
2018-09-04T19:06:38.171Z,101203.21
2018-09-04T19:09:05.955Z,101205.53
2018-09-04T19:11:32.636Z,101204.20
2018-09-04T19:14:00.169Z,101207.35
2018-09-04T19:16:26.993Z,101210.36
2018-09-04T19:18:53.667Z,101214.50
2018-09-04T19:21:21.749Z,101214.16
2018-09-04T19:23:48.424Z,101224.57
2018-09-04T19:26:15.090Z,101219.25
2018-09-04T19:28:41.750Z,101219.40
2018-09-04T19:31:10.694Z,101224.08
2018-09-04T19:33:37.689Z,101224.57
2018-09-04T19:36:04.406Z,101231.72
2018-09-04T19:38:37.910Z,101236.89
2018-09-04T19:41:04.873Z,101238.02
2018-09-04T19:43:31.545Z,101235.36
2018-09-04T19:45:58.932Z,101241.30
2018-09-04T19:48:25.612Z,101235.29
2018-09-04T19:50:52.344Z,101237.80
2018-09-04T19:53:20.039Z,101240.34
2018-09-04T19:55:46.712Z,101241.30
2018-09-04T19:58:14.370Z,101237.30
2018-09-04T20:00:41.118Z,101237.45
2018-09-04T20:03:07.809Z,101244.94
2018-09-04T20:05:34.464Z,101244.67
2018-09-04T20:08:01.269Z,101241.30
2018-09-04T20:10:29.133Z,101248.44
2018-09-04T20:12:55.798Z,101243.41
2018-09-04T20:15:23.565Z,101250.06
2018-09-04T20:17:51.220Z,101256.00
2018-09-04T20:20:17.881Z,101254.06
2018-09-04T20:22:44.641Z,101258.39
2018-09-04T20:25:11.306Z,101265.66
2018-09-04T20:27:38.983Z,101268.31
2018-09-04T20:30:05.641Z,101265.80
2018-09-04T20:32:32.523Z,101267.97
2018-09-04T20:34:59.181Z,101267.47
2018-09-04T20:37:25.897Z,101270.48
2018-09-04T20:39:52.630Z,101264.47
2018-09-04T20:42:20.278Z,101270.89
2018-09-04T20:44:48.111Z,101267.89
2018-09-04T20:47:14.788Z,101278.03
2018-09-04T20:49:41.542Z,101280.47
2018-09-04T20:52:08.208Z,101284.69
2018-09-04T20:54:34.907Z,101282.02
2018-09-04T20:57:33.324Z,101280.35
2018-09-04T21:00:07.022Z,101282.59
2018-09-04T21:02:39.300Z,101272.23
2018-09-04T21:05:11.681Z,101278.48
2018-09-04T21:07:50.013Z,101282.70
2018-09-04T21:10:16.665Z,101280.99
2018-09-04T21:12:43.431Z,101283.05
2018-09-04T21:15:10.223Z,101283.12
2018-09-04T21:17:36.901Z,101289.77
2018-09-04T21:20:04.577Z,101279.13
2018-09-04T21:22:31.281Z,101286.28
2018-09-04T21:24:58.784Z,101287.12
2018-09-04T21:27:25.462Z,101286.89
2018-09-04T21:29:52.173Z,101286.28
2018-09-04T21:32:18.977Z,101291.33
2018-09-04T21:34:45.677Z,101289.28
2018-09-04T21:37:12.334Z,101287.53
2018-09-04T21:39:38.975Z,101295.70
2018-09-04T21:42:05.642Z,101299.69
2018-09-04T21:44:32.299Z,101292.20
2018-09-04T21:47:00.053Z,101292.70
2018-09-04T21:49:26.709Z,101291.37
2018-09-04T21:51:54.353Z,101292.35
2018-09-04T21:54:22.039Z,101296.26
2018-09-04T21:56:48.689Z,101291.63
2018-09-04T21:59:15.358Z,101298.66
2018-09-04T22:01:42.977Z,101291.63
2018-09-04T22:04:10.525Z,101288.02
2018-09-04T22:06:37.201Z,101290.67
2018-09-04T22:09:04.768Z,101288.36
2018-09-04T22:11:31.459Z,101292.50
2018-09-04T22:13:59.240Z,101292.76
2018-09-04T22:16:26.927Z,101286.27
2018-09-04T22:18:53.638Z,101296.26
2018-09-04T22:21:21.316Z,101294.84
2018-09-04T22:23:47.990Z,101297.84
2018-09-04T22:26:15.590Z,101299.33
2018-09-04T22:28:42.296Z,101291.49
2018-09-04T22:31:09.805Z,101292.59
2018-09-04T22:33:37.338Z,101286.78
2018-09-04T22:36:04.896Z,101288.75
2018-09-04T22:38:32.516Z,101288.41
2018-09-04T22:40:59.301Z,101289.24
2018-09-04T22:43:25.960Z,101291.52
2018-09-04T22:45:53.620Z,101297.22
2018-09-04T22:48:21.030Z,101296.00
2018-09-04T22:50:53.337Z,101289.99
2018-09-04T22:53:21.251Z,101297.05
2018-09-04T22:55:47.902Z,101294.53
2018-09-04T22:58:14.646Z,101292.34
2018-09-04T23:00:41.305Z,101298.03
2018-09-04T23:03:08.799Z,101298.87
2018-09-04T23:05:35.485Z,101298.03
2018-09-04T23:08:02.156Z,101293.31
2018-09-04T23:10:29.725Z,101295.57
2018-09-04T23:12:57.254Z,101299.56
2018-09-04T23:15:23.910Z,101299.07
2018-09-04T23:17:51.396Z,101296.90
2018-09-04T23:20:19.057Z,101294.97
2018-09-04T23:22:46.673Z,101293.14
2018-09-04T23:25:14.428Z,101296.73
2018-09-04T23:27:42.091Z,101288.03
2018-09-04T23:30:08.758Z,101282.71
2018-09-04T23:32:36.342Z,101282.36
2018-09-04T23:35:03.948Z,101289.50
2018-09-04T23:37:30.628Z,101289.56
2018-09-04T23:39:58.544Z,101285.58
2018-09-04T23:42:29.818Z,101286.81
2018-09-04T23:44:58.102Z,101292.22
2018-09-04T23:47:25.690Z,101294.06
2018-09-04T23:49:52.356Z,101288.92
2018-09-04T23:52:21.281Z,101283.41
2018-09-04T23:54:48.920Z,101285.98
2018-09-04T23:57:15.571Z,101281.99
2018-09-04T23:59:43.165Z,101280.17
